createdAt,value
2018-07-04T00:01:12.203Z,16.90
2018-07-04T00:03:53.938Z,16.90
2018-07-04T00:06:33.877Z,16.90
2018-07-04T00:09:13.849Z,17.00
2018-07-04T00:11:53.562Z,16.90
2018-07-04T00:14:33.741Z,16.80
2018-07-04T00:17:13.597Z,16.70
2018-07-04T00:19:55.323Z,16.70
2018-07-04T00:22:34.942Z,16.70
2018-07-04T00:25:14.926Z,16.70
2018-07-04T00:27:54.635Z,16.70
2018-07-04T00:30:34.488Z,16.60
2018-07-04T00:33:14.318Z,16.60
2018-07-04T00:35:56.330Z,16.50
2018-07-04T00:38:37.040Z,16.40
2018-07-04T00:41:18.747Z,16.30
2018-07-04T00:43:58.425Z,16.30
2018-07-04T00:46:39.268Z,16.30
2018-07-04T00:49:18.934Z,16.30
2018-07-04T00:51:58.965Z,16.20
2018-07-04T00:54:38.590Z,16.20
2018-07-04T00:57:20.444Z,16.20
2018-07-04T01:00:00.300Z,16.20
2018-07-04T01:02:42.149Z,16.20
2018-07-04T01:05:21.962Z,16.10
2018-07-04T01:08:03.875Z,16.10
2018-07-04T01:10:44.563Z,16.10
2018-07-04T01:13:24.618Z,16.10
2018-07-04T01:16:08.124Z,16.10
2018-07-04T01:18:48.008Z,16.00
2018-07-04T01:21:27.720Z,16.00
2018-07-04T01:24:07.483Z,15.90
2018-07-04T01:26:47.301Z,15.90
2018-07-04T01:29:27.167Z,15.90
2018-07-04T01:32:06.981Z,15.90
2018-07-04T01:34:48.943Z,15.90
2018-07-04T01:37:28.699Z,15.90
2018-07-04T01:40:10.385Z,15.80
2018-07-04T01:42:50.195Z,15.80
2018-07-04T01:45:30.257Z,15.80
2018-07-04T01:48:10.108Z,15.70
2018-07-04T01:50:52.242Z,15.70
2018-07-04T01:53:32.018Z,15.60
2018-07-04T01:56:11.762Z,15.60
2018-07-04T01:58:52.376Z,15.60
2018-07-04T02:01:32.300Z,15.60
2018-07-04T02:04:12.058Z,15.50
2018-07-04T02:06:52.197Z,15.50
2018-07-04T02:09:34.308Z,15.50
2018-07-04T02:12:15.434Z,15.40
2018-07-04T02:14:55.069Z,15.40
2018-07-04T02:17:36.744Z,15.40
2018-07-04T02:20:16.416Z,15.30
2018-07-04T02:22:58.134Z,15.30
2018-07-04T02:25:38.091Z,15.30
2018-07-04T02:28:17.927Z,15.20
2018-07-04T02:30:57.620Z,15.10
2018-07-04T02:33:37.432Z,15.10
2018-07-04T02:36:17.217Z,15.20
2018-07-04T02:38:57.055Z,15.20
2018-07-04T02:41:36.845Z,15.20
2018-07-04T02:44:16.691Z,15.20
2018-07-04T02:49:30.355Z,15.20
2018-07-04T02:52:10.096Z,15.20
2018-07-04T02:54:52.164Z,15.20
2018-07-04T02:57:31.949Z,15.20
2018-07-04T03:00:11.998Z,15.20
2018-07-04T03:02:51.761Z,15.20
2018-07-04T03:05:33.572Z,15.20
2018-07-04T03:08:13.397Z,15.20
2018-07-04T03:10:53.498Z,15.20
2018-07-04T03:13:33.160Z,15.10
2018-07-04T03:16:12.937Z,15.10
2018-07-04T03:18:52.876Z,15.10
2018-07-04T03:21:32.840Z,15.10
2018-07-04T03:24:12.691Z,15.10
2018-07-04T03:26:55.316Z,15.10
2018-07-04T03:29:35.095Z,15.10
2018-07-04T03:32:17.207Z,15.10
2018-07-04T03:34:56.834Z,15.10
2018-07-04T03:37:36.606Z,15.20
2018-07-04T03:40:16.469Z,15.20
2018-07-04T03:42:56.369Z,15.20
2018-07-04T03:45:36.120Z,15.10
2018-07-04T03:48:17.721Z,15.10
2018-07-04T03:50:57.479Z,15.10
2018-07-04T03:53:37.637Z,15.10
2018-07-04T03:56:17.275Z,15.00
2018-07-04T03:58:57.000Z,15.10
2018-07-04T04:01:36.705Z,15.10
2018-07-04T04:04:16.595Z,15.20
2018-07-04T04:06:56.362Z,15.20
2018-07-04T04:09:39.249Z,15.30
2018-07-04T04:12:21.352Z,15.30
2018-07-04T04:17:35.199Z,15.30
2018-07-04T04:20:17.350Z,15.30
2018-07-04T04:22:57.183Z,15.30
2018-07-04T04:25:39.191Z,15.40
2018-07-04T04:28:18.843Z,15.40
2018-07-04T04:31:00.629Z,15.40
2018-07-04T04:33:40.195Z,15.40
2018-07-04T04:38:54.025Z,15.60
2018-07-04T04:41:33.856Z,15.70
2018-07-04T04:44:13.429Z,15.70
2018-07-04T04:46:55.233Z,15.80
2018-07-04T04:49:35.035Z,15.80
2018-07-04T04:52:15.030Z,15.80
2018-07-04T04:54:54.733Z,15.80
2018-07-04T04:57:34.525Z,15.80
2018-07-04T05:00:14.245Z,16.00
2018-07-04T05:02:54.326Z,16.00
2018-07-04T05:05:34.098Z,16.10
2018-07-04T05:08:16.033Z,16.10
2018-07-04T05:10:55.842Z,16.10
2018-07-04T05:13:36.046Z,16.10
2018-07-04T05:16:15.849Z,16.10
2018-07-04T05:18:55.890Z,16.10
2018-07-04T05:24:11.830Z,16.10
2018-07-04T05:26:51.618Z,16.30
2018-07-04T05:29:40.281Z,16.40
2018-07-04T05:32:19.891Z,16.40
2018-07-04T05:35:01.706Z,16.60
2018-07-04T05:37:41.484Z,17.60
2018-07-04T05:40:23.887Z,18.50
2018-07-04T05:43:03.737Z,18.60
2018-07-04T05:45:43.379Z,18.70
2018-07-04T05:48:23.380Z,19.60
2018-07-04T05:51:08.164Z,20.30
2018-07-04T05:53:48.201Z,19.80
2018-07-04T05:56:28.206Z,20.40
2018-07-04T05:59:09.181Z,20.80
2018-07-04T06:01:52.183Z,20.80
2018-07-04T06:04:32.238Z,20.70
2018-07-04T06:07:12.458Z,21.60
2018-07-04T06:09:52.757Z,22.00
2018-07-04T06:12:33.470Z,22.30
2018-07-04T06:15:15.704Z,22.40
2018-07-04T06:17:55.592Z,22.80
2018-07-04T06:20:35.488Z,23.00
2018-07-04T06:23:18.380Z,23.40
2018-07-04T06:26:02.987Z,23.90
2018-07-04T06:28:44.804Z,23.70
2018-07-04T06:31:24.582Z,24.20
2018-07-04T06:34:04.568Z,24.00
2018-07-04T06:36:44.659Z,23.60
2018-07-04T06:39:12.313Z,23.40
2018-07-04T06:41:39.643Z,24.10
2018-07-04T06:44:06.988Z,24.70
2018-07-04T06:46:37.550Z,25.10
2018-07-04T06:49:04.929Z,25.20
2018-07-04T06:51:32.278Z,25.10
2018-07-04T06:53:59.840Z,24.80
2018-07-04T06:56:27.194Z,25.00
2018-07-04T06:58:54.543Z,25.40
2018-07-04T07:01:22.305Z,25.80
2018-07-04T07:04:01.950Z,25.40
2018-07-04T07:06:44.154Z,25.10
2018-07-04T07:09:26.480Z,24.80
2018-07-04T07:12:10.835Z,22.80
2018-07-04T07:14:52.724Z,21.00
2018-07-04T07:17:35.751Z,19.50
2018-07-04T07:20:18.778Z,19.00
2018-07-04T07:23:05.606Z,19.00
2018-07-04T07:25:50.350Z,19.20
2018-07-04T07:28:35.106Z,19.20
2018-07-04T07:31:17.937Z,19.10
2018-07-04T07:34:00.171Z,19.10
2018-07-04T07:36:43.042Z,19.20
2018-07-04T07:39:30.465Z,19.50
2018-07-04T07:42:12.572Z,19.50
2018-07-04T07:44:58.984Z,19.50
2018-07-04T07:47:48.434Z,20.30
2018-07-04T07:50:33.816Z,20.20
2018-07-04T07:53:16.537Z,20.40
2018-07-04T07:56:00.882Z,20.40
2018-07-04T07:59:01.112Z,20.50
2018-07-04T08:01:55.483Z,20.50
2018-07-04T08:04:41.386Z,20.40
2018-07-04T08:07:27.486Z,20.70
2018-07-04T08:10:09.472Z,20.50
2018-07-04T08:12:53.928Z,20.50
2018-07-04T08:15:36.227Z,20.50
2018-07-04T08:18:23.139Z,21.00
2018-07-04T08:23:48.065Z,21.00
2018-07-04T08:26:32.004Z,21.20
2018-07-04T08:29:14.024Z,21.30
2018-07-04T08:31:58.905Z,21.40
2018-07-04T08:34:44.151Z,21.60
2018-07-04T08:37:33.609Z,21.90
2018-07-04T08:40:17.660Z,21.60
2018-07-04T08:43:00.471Z,21.40
2018-07-04T08:45:43.096Z,21.80
2018-07-04T08:48:27.750Z,22.50
2018-07-04T08:51:11.402Z,22.30
2018-07-04T08:53:55.012Z,22.50
2018-07-04T08:59:18.846Z,22.30
2018-07-04T09:02:05.925Z,22.40
2018-07-04T09:07:35.241Z,22.50
2018-07-04T09:13:20.549Z,23.30
2018-07-04T09:16:06.219Z,23.30
2018-07-04T09:18:52.723Z,23.10
2018-07-04T09:21:38.418Z,22.90
2018-07-04T09:24:20.094Z,23.40
2018-07-04T09:27:01.816Z,23.80
2018-07-04T09:29:46.854Z,24.10
2018-07-04T09:32:28.660Z,23.70
2018-07-04T09:35:11.257Z,23.70
2018-07-04T09:37:52.849Z,24.00
2018-07-04T09:40:41.540Z,23.60
2018-07-04T09:48:44.130Z,24.00
2018-07-04T09:51:26.892Z,23.90
2018-07-04T09:54:09.736Z,24.30
2018-07-04T09:56:52.578Z,24.30
2018-07-04T09:59:33.555Z,24.40
2018-07-04T10:02:18.701Z,24.70
2018-07-04T10:05:03.271Z,24.90
2018-07-04T10:07:54.088Z,24.40
2018-07-04T10:10:36.806Z,24.90
2018-07-04T10:13:20.942Z,24.60
2018-07-04T10:16:02.673Z,25.00
2018-07-04T10:18:44.395Z,24.40
2018-07-04T10:24:05.350Z,24.60
2018-07-04T10:26:49.075Z,24.90
2018-07-04T10:29:40.177Z,24.70
2018-07-04T10:32:25.144Z,25.10
2018-07-04T10:35:09.286Z,25.00
2018-07-04T10:37:50.831Z,24.90
2018-07-04T10:40:32.999Z,24.80
2018-07-04T10:43:14.994Z,25.40
2018-07-04T10:45:57.702Z,25.60
2018-07-04T10:48:39.595Z,25.00
2018-07-04T10:51:21.839Z,24.60
2018-07-04T10:54:03.367Z,24.80
2018-07-04T10:56:44.885Z,25.10
2018-07-04T11:02:05.453Z,25.50
2018-07-04T11:04:49.618Z,25.50
2018-07-04T11:07:32.334Z,26.00
2018-07-04T11:10:17.406Z,25.90
2018-07-04T11:12:59.210Z,25.50
2018-07-04T11:15:49.501Z,25.60
2018-07-04T11:18:33.936Z,25.90
2018-07-04T11:21:16.675Z,25.90
2018-07-04T11:24:02.135Z,26.40
2018-07-04T11:26:43.713Z,25.90
2018-07-04T11:29:29.115Z,26.30
2018-07-04T11:32:11.827Z,26.30
2018-07-04T11:34:53.909Z,26.50
2018-07-04T11:37:35.511Z,26.30
2018-07-04T11:40:20.029Z,26.20
2018-07-04T11:43:02.380Z,26.50
2018-07-04T11:45:44.280Z,26.60
2018-07-04T11:48:13.118Z,26.70
2018-07-04T11:50:42.572Z,26.60
2018-07-04T11:53:12.286Z,26.60
2018-07-04T11:55:44.450Z,26.50
2018-07-04T11:58:14.993Z,26.50
2018-07-04T12:00:45.307Z,26.30
2018-07-04T12:03:19.794Z,26.50
2018-07-04T12:06:06.503Z,26.80
2018-07-04T12:08:36.307Z,26.80
2018-07-04T12:11:10.017Z,27.20
2018-07-04T12:13:44.953Z,26.90
2018-07-04T12:16:18.653Z,27.10
2018-07-04T12:19:03.822Z,27.10
2018-07-04T12:21:34.856Z,27.30
2018-07-04T12:24:04.573Z,27.10
2018-07-04T12:26:36.640Z,26.90
2018-07-04T12:29:07.465Z,26.50
2018-07-04T12:31:37.176Z,26.20
2018-07-04T12:34:08.609Z,26.50
2018-07-04T12:36:39.058Z,26.20
2018-07-04T12:39:08.569Z,26.30
2018-07-04T12:44:11.155Z,27.00
2018-07-04T12:46:41.275Z,26.60
2018-07-04T12:49:11.995Z,26.70
2018-07-04T12:51:56.542Z,26.70
2018-07-04T12:54:36.154Z,26.80
2018-07-04T12:57:18.632Z,26.80
2018-07-04T13:00:01.084Z,26.50
2018-07-04T13:02:42.397Z,26.60
2018-07-04T13:05:26.408Z,26.50
2018-07-04T13:08:12.847Z,26.50
2018-07-04T13:13:30.285Z,26.20
2018-07-04T13:16:13.119Z,26.60
2018-07-04T13:18:58.896Z,26.30
2018-07-04T13:21:40.788Z,26.40
2018-07-04T13:24:26.772Z,25.90
2018-07-04T13:29:50.470Z,26.00
2018-07-04T13:32:33.099Z,26.00
2018-07-04T13:35:19.077Z,25.80
2018-07-04T13:38:07.298Z,25.70
2018-07-04T13:40:50.124Z,25.50
2018-07-04T13:43:31.397Z,25.30
2018-07-04T13:46:15.654Z,25.30
2018-07-04T13:48:57.335Z,25.40
2018-07-04T13:51:38.935Z,25.10
2018-07-04T13:54:20.411Z,25.30
2018-07-04T13:57:08.962Z,25.20
2018-07-04T14:02:53.905Z,25.00
2018-07-04T14:05:36.040Z,25.50
2018-07-04T14:08:20.408Z,25.60
2018-07-04T14:11:03.713Z,25.70
2018-07-04T14:13:47.274Z,25.60
2018-07-04T14:16:31.309Z,25.70
2018-07-04T14:19:17.572Z,25.60
2018-07-04T14:21:58.598Z,25.90
2018-07-04T14:24:43.632Z,26.50
2018-07-04T14:27:32.763Z,26.10
2018-07-04T14:30:16.651Z,26.00
2018-07-04T14:32:59.367Z,26.10
2018-07-04T14:35:42.904Z,27.00
2018-07-04T14:38:25.071Z,26.70
2018-07-04T14:41:10.177Z,26.60
2018-07-04T14:43:52.230Z,26.70
2018-07-04T14:46:34.370Z,26.20
2018-07-04T14:49:16.207Z,26.10
2018-07-04T14:51:58.906Z,26.60
2018-07-04T14:54:41.890Z,26.00
2018-07-04T14:57:25.539Z,25.90
2018-07-04T15:00:08.658Z,26.10
2018-07-04T15:02:58.010Z,26.30
2018-07-04T15:05:42.041Z,26.10
2018-07-04T15:08:25.194Z,26.00
2018-07-04T15:11:08.102Z,25.80
2018-07-04T15:13:52.480Z,25.90
2018-07-04T15:16:35.390Z,25.70
2018-07-04T15:19:18.110Z,25.80
2018-07-04T15:24:39.123Z,25.70
2018-07-04T15:27:21.046Z,25.50
2018-07-04T15:30:03.743Z,25.60
2018-07-04T15:35:32.362Z,25.60
2018-07-04T15:38:14.853Z,25.30
2018-07-04T15:40:57.670Z,25.40
2018-07-04T15:43:43.111Z,25.10
2018-07-04T15:46:25.931Z,25.00
2018-07-04T15:49:06.901Z,25.00
2018-07-04T15:51:51.045Z,25.30
2018-07-04T15:54:33.676Z,25.20
2018-07-04T15:57:15.612Z,24.80
2018-07-04T15:59:59.223Z,24.50
2018-07-04T16:02:47.264Z,24.50
2018-07-04T16:05:34.167Z,24.70
2018-07-04T16:08:26.206Z,25.10
2018-07-04T16:11:11.110Z,25.00
2018-07-04T16:13:54.292Z,24.80
2018-07-04T16:16:38.555Z,24.40
2018-07-04T16:19:23.096Z,24.30
2018-07-04T16:22:07.442Z,24.70
2018-07-04T16:27:26.985Z,24.70
2018-07-04T16:30:09.260Z,24.10
2018-07-04T16:32:51.665Z,23.70
2018-07-04T16:35:34.046Z,23.90
2018-07-04T16:38:21.825Z,24.30
2018-07-04T16:41:06.131Z,24.50
2018-07-04T16:43:56.111Z,24.40
2018-07-04T16:46:40.887Z,24.40
2018-07-04T16:49:23.698Z,24.40
2018-07-04T16:52:06.423Z,24.40
2018-07-04T16:54:51.265Z,23.90
2018-07-04T16:57:34.413Z,24.00
2018-07-04T17:00:16.294Z,23.80
2018-07-04T17:02:58.914Z,23.50
2018-07-04T17:05:39.784Z,23.30
2018-07-04T17:08:20.896Z,23.50
2018-07-04T17:11:03.115Z,23.80
2018-07-04T17:16:43.222Z,23.80
2018-07-04T17:19:24.918Z,23.90
2018-07-04T17:22:07.850Z,23.70
2018-07-04T17:24:49.798Z,23.80
2018-07-04T17:27:34.799Z,23.50
2018-07-04T17:30:18.541Z,23.60
2018-07-04T17:33:01.268Z,23.30
2018-07-04T17:35:46.015Z,23.30
2018-07-04T17:38:32.516Z,23.30
2018-07-04T17:41:16.684Z,23.20
2018-07-04T17:49:48.671Z,23.00
2018-07-04T17:52:34.140Z,22.80
2018-07-04T17:55:21.059Z,22.80
2018-07-04T18:07:22.284Z,22.20
2018-07-04T18:10:17.464Z,22.20
2018-07-04T18:13:11.782Z,21.90
2018-07-04T18:16:06.564Z,21.90
2018-07-04T18:19:01.908Z,21.70
2018-07-04T18:21:55.226Z,21.60
2018-07-04T18:24:48.189Z,21.60
2018-07-04T18:27:40.421Z,21.50
2018-07-04T18:30:33.689Z,21.20
2018-07-04T18:33:26.179Z,21.20
2018-07-04T18:36:18.764Z,21.10
2018-07-04T18:39:12.651Z,20.90
2018-07-04T18:42:01.296Z,20.80
2018-07-04T18:44:56.096Z,20.90
2018-07-04T18:47:48.031Z,20.80
2018-07-04T18:50:42.076Z,20.70
2018-07-04T18:53:34.909Z,20.60
2018-07-04T18:56:28.257Z,20.50
2018-07-04T18:59:25.055Z,20.40
2018-07-04T19:05:04.780Z,20.40
2018-07-04T19:07:46.205Z,20.20
2018-07-04T19:10:30.648Z,20.10
2018-07-04T19:13:11.342Z,19.90
2018-07-04T19:15:53.428Z,19.90
2018-07-04T19:18:36.145Z,19.90
2018-07-04T19:21:17.959Z,19.70
2018-07-04T19:26:53.824Z,19.70
2018-07-04T19:29:36.827Z,19.50
2018-07-04T19:34:55.398Z,19.30
2018-07-04T19:37:41.222Z,19.30
2018-07-04T19:40:25.640Z,19.20
2018-07-04T19:46:38.693Z,18.90
2018-07-04T19:49:21.912Z,18.90
2018-07-04T19:52:04.210Z,18.80
2018-07-04T19:54:52.878Z,18.70
2018-07-04T19:57:38.984Z,18.50
2018-07-04T20:00:24.326Z,18.50
2018-07-04T20:03:06.544Z,18.50
2018-07-04T20:05:49.457Z,18.40
2018-07-04T20:20:12.902Z,18.00
2018-07-04T20:22:56.231Z,18.00
2018-07-04T20:25:41.445Z,18.00
2018-07-04T20:28:23.708Z,17.80
2018-07-04T20:31:05.806Z,17.70
2018-07-04T20:33:46.811Z,17.80
2018-07-04T20:36:31.847Z,17.70
2018-07-04T20:39:17.866Z,17.60
2018-07-04T20:41:59.429Z,17.60
2018-07-04T20:44:41.268Z,17.50
2018-07-04T20:47:23.115Z,17.50
2018-07-04T20:50:04.142Z,17.50
2018-07-04T20:52:45.169Z,17.50
2018-07-04T20:55:29.180Z,17.40
2018-07-04T20:58:10.076Z,17.30
2018-07-04T21:00:51.749Z,17.30
2018-07-04T21:03:37.122Z,17.20
2018-07-04T21:06:19.266Z,17.20
2018-07-04T21:12:07.034Z,17.10
2018-07-04T21:14:52.830Z,17.10
2018-07-04T21:17:39.905Z,17.10
2018-07-04T21:20:29.890Z,17.10
2018-07-04T21:23:15.983Z,17.20
2018-07-04T21:25:57.956Z,17.10
2018-07-04T21:28:53.706Z,17.00
2018-07-04T21:31:34.590Z,17.00
2018-07-04T21:34:18.769Z,17.10
2018-07-04T21:37:01.088Z,17.00
2018-07-04T21:39:53.865Z,17.00
2018-07-04T21:42:35.972Z,17.00
2018-07-04T21:45:17.488Z,16.90
2018-07-04T21:48:03.128Z,16.80
2018-07-04T21:51:07.212Z,16.90
2018-07-04T21:56:35.714Z,16.80
2018-07-04T21:59:16.707Z,16.80
2018-07-04T22:07:08.770Z,16.80
2018-07-04T22:09:53.474Z,16.90
2018-07-04T22:12:33.920Z,16.80
2018-07-04T22:15:14.343Z,16.80
2018-07-04T22:17:56.552Z,16.70
2018-07-04T22:20:41.029Z,16.70
2018-07-04T22:23:21.979Z,16.80
2018-07-04T22:26:06.210Z,16.70
2018-07-04T22:28:47.422Z,16.60
2018-07-04T22:31:27.436Z,16.60
2018-07-04T22:34:10.264Z,16.70
2018-07-04T22:37:05.478Z,16.60
2018-07-04T22:39:46.181Z,16.60
2018-07-04T22:42:27.155Z,16.60
2018-07-04T22:45:08.655Z,16.60
2018-07-04T22:47:49.429Z,16.50
2018-07-04T22:50:33.656Z,16.50
2018-07-04T22:53:14.078Z,16.40
2018-07-04T22:55:56.913Z,16.40
2018-07-04T23:01:14.250Z,16.30
2018-07-04T23:03:58.458Z,16.20
2018-07-04T23:06:39.611Z,16.10
2018-07-04T23:09:20.233Z,16.10
2018-07-04T23:12:00.937Z,16.00
2018-07-04T23:14:40.852Z,16.10
2018-07-04T23:17:21.441Z,16.10
2018-07-04T23:20:03.814Z,16.10
2018-07-04T23:22:44.314Z,16.10
2018-07-04T23:25:24.567Z,16.20
2018-07-04T23:28:05.444Z,16.10
2018-07-04T23:33:47.869Z,16.10
2018-07-04T23:36:30.279Z,16.20
2018-07-04T23:39:12.014Z,16.20
2018-07-04T23:44:47.743Z,16.10
2018-07-04T23:52:59.866Z,16.10
2018-07-04T23:55:41.158Z,16.10
2018-07-04T23:58:23.038Z,16.00
